KSVHKMTV

Guest
Details From KSVH - Statesville Rgnl
To KMTV - Martinsville - Blue Ridge
Flight Number -
Tags Generated
Created
Modified
Stats Distance 69 nm / 128 km
Max Altitude 0 ft / 0 m
Waypoints 2
Social Downloads 1
Likes 0
Share VATSIM

Download

Looking for another format? Having issues loading an existing format? Contact us
Advertisement - Login to hide

Notes

Generated

Route

KSVH KMTV

ID Type Via Altitude Latitude Longitude Leg Dist Tot Dist Heading (true) Name
O KSVH APT - 0 ft / 0 m 35.76614˚ -80.96562˚ - 0 nm - -
O KMTV APT - 0 ft / 0 m 36.63400˚ -80.02585˚ 69 nm 69 nm 41° / 41° -

Altitude Profile

Advertisement - Login to hide

KSVH

Details ICAO KSVH (SVH)
Name Statesville Rgnl
Region United States
Timezone America/New_York (UTC-5.0)
Stats Elevation 965 ft / 294 m (AMSL)
Location 35.764996° -80.953896°
Runways 1
Magnetic Variation 7.775° W

METAR

KSVH 160925Z AUTO 00000KT 10SM CLR M02/M09 A3016 RMK AO2 T10181091

Decode

TAF

Not found

Departure Runways

ID Width Length Bearing (true) Bearing (mag) Surface Threshold Offset Overrun Length
10 98 ft / 30 m 6,993 ft / 2,131 m 96.86° 104.64° Asphalt 1,001 ft / 305 m 0 ft / 0 m
28 98 ft / 30 m 6,993 ft / 2,131 m 276.88° 284.66° Asphalt 551 ft / 168 m 0 ft / 0 m

KMTV

Details ICAO KMTV
Name Martinsville - Blue Ridge
Region United States
Timezone America/New_York (UTC-5.0)
Stats Elevation 941 ft / 287 m (AMSL)
Location 36.630754° -80.018339°
Runways 1
Magnetic Variation 8.539° W

METAR

KMTV 160935Z AUTO 00000KT 10SM CLR M06/M08 A3017 RMK AO2 T10651083

Decode

TAF

Not found

Destination Runways

ID Width Length Bearing (true) Bearing (mag) Surface Threshold Offset Overrun Length
12 98 ft / 30 m 4,997 ft / 1,523 m 118.30° 126.84° Asphalt 0 ft / 0 m 0 ft / 0 m
30 98 ft / 30 m 4,997 ft / 1,523 m 298.30° 306.84° Asphalt 0 ft / 0 m 0 ft / 0 m

Approach Navaids

Runway Type Ident Frequency Range Bearing (true) Bearing (mag) Slope Elevation
30 Localiser IUVM 111.30 MHz 18 nm / 33 km 298.30° 306.84° - 941 ft / 287 m (AMSL)